createdAt,value
2022-10-01T00:01:16.941Z,9.21
2022-10-01T00:03:44.196Z,9.22
2022-10-01T00:06:19.013Z,9.24
2022-10-01T00:08:48.867Z,9.25
2022-10-01T00:11:24.844Z,9.25
2022-10-01T00:13:52.835Z,9.28
2022-10-01T00:16:23.156Z,9.28
2022-10-01T00:18:50.513Z,9.28
2022-10-01T00:21:20.282Z,9.28
2022-10-01T00:23:48.090Z,9.30
2022-10-01T00:26:17.765Z,9.31
2022-10-01T00:28:46.201Z,9.33
2022-10-01T00:31:15.874Z,9.35
2022-10-01T00:33:42.987Z,9.37
2022-10-01T00:36:11.262Z,9.38
2022-10-01T00:38:40.224Z,9.39
2022-10-01T00:41:07.778Z,9.39
2022-10-01T00:43:37.862Z,9.42
2022-10-01T00:46:21.726Z,9.41
2022-10-01T00:49:20.159Z,9.45
2022-10-01T00:52:01.698Z,9.46
2022-10-01T00:54:46.530Z,9.44
2022-10-01T00:57:16.951Z,9.46
2022-10-01T00:59:43.641Z,9.47
2022-10-01T01:02:11.270Z,9.49
2022-10-01T01:04:40.197Z,9.50
2022-10-01T01:07:07.178Z,9.52
2022-10-01T01:09:37.293Z,9.54
2022-10-01T01:12:15.452Z,9.55
2022-10-01T01:14:52.605Z,9.56
2022-10-01T01:17:26.132Z,9.57
2022-10-01T01:20:31.387Z,9.58
2022-10-01T01:23:16.229Z,9.59
2022-10-01T01:25:49.138Z,9.59
2022-10-01T01:28:33.059Z,9.58
2022-10-01T01:31:05.015Z,9.60
2022-10-01T01:33:35.472Z,9.60
2022-10-01T01:36:06.940Z,9.57
2022-10-01T01:38:38.843Z,9.55
2022-10-01T01:41:06.781Z,9.54
2022-10-01T01:43:37.864Z,9.50
2022-10-01T01:46:08.664Z,9.48
2022-10-01T01:48:37.101Z,9.44
2022-10-01T01:51:14.660Z,9.42
2022-10-01T01:53:41.632Z,9.41
2022-10-01T01:56:08.484Z,9.40
2022-10-01T01:58:36.156Z,9.38
2022-10-01T02:01:02.778Z,9.38
2022-10-01T02:03:30.642Z,9.38
2022-10-01T02:06:06.223Z,9.39
2022-10-01T02:08:43.350Z,9.39
2022-10-01T02:11:18.860Z,9.39
2022-10-01T02:14:10.007Z,9.39
2022-10-01T02:16:50.953Z,9.39
2022-10-01T02:19:44.408Z,9.38
2022-10-01T02:22:27.119Z,9.39
2022-10-01T02:24:57.968Z,9.41
2022-10-01T02:27:40.924Z,9.43
2022-10-01T02:30:09.705Z,9.43
2022-10-01T02:32:38.961Z,9.47
2022-10-01T02:35:09.581Z,9.50
2022-10-01T02:37:39.053Z,9.51
2022-10-01T02:40:11.682Z,9.54
2022-10-01T02:42:42.060Z,9.56
2022-10-01T02:45:11.255Z,9.58
2022-10-01T02:47:45.072Z,9.60
2022-10-01T02:50:12.944Z,9.61
2022-10-01T02:53:11.719Z,9.63
2022-10-01T02:55:40.210Z,9.65
2022-10-01T02:58:07.491Z,9.68
2022-10-01T03:00:34.421Z,9.70
2022-10-01T03:03:00.949Z,9.72
2022-10-01T03:05:28.061Z,9.74
2022-10-01T03:07:54.628Z,9.76
2022-10-01T03:10:21.193Z,9.79
2022-10-01T03:12:47.774Z,9.81
2022-10-01T03:15:16.871Z,9.84
2022-10-01T03:17:43.400Z,9.86
2022-10-01T03:20:10.164Z,9.88
2022-10-01T03:22:37.984Z,9.91
2022-10-01T03:25:05.008Z,9.96
2022-10-01T03:27:31.688Z,10.03
2022-10-01T03:29:58.148Z,10.10
2022-10-01T03:32:24.744Z,10.20
2022-10-01T03:34:51.421Z,10.27
2022-10-01T03:37:17.936Z,10.32
2022-10-01T03:39:44.860Z,10.40
2022-10-01T03:42:11.406Z,10.46
2022-10-01T03:44:37.981Z,10.51
2022-10-01T03:47:04.566Z,10.55
2022-10-01T03:49:31.128Z,10.62
2022-10-01T03:51:57.708Z,10.67
2022-10-01T03:54:25.462Z,10.70
2022-10-01T03:56:52.516Z,10.74
2022-10-01T03:59:19.963Z,10.79
2022-10-01T04:01:46.675Z,10.83
2022-10-01T04:04:13.371Z,10.88
2022-10-01T04:06:39.881Z,10.89
2022-10-01T04:09:06.536Z,10.93
2022-10-01T04:11:33.395Z,10.96
2022-10-01T04:14:00.101Z,10.98
2022-10-01T04:16:26.790Z,11.00
2022-10-01T04:18:53.872Z,11.02
2022-10-01T04:21:20.661Z,11.04
2022-10-01T04:23:47.246Z,11.06
2022-10-01T04:26:13.720Z,11.09
2022-10-01T04:28:40.328Z,11.11
2022-10-01T04:31:25.664Z,11.13
2022-10-01T04:33:54.954Z,11.17
2022-10-01T04:36:22.765Z,11.19
2022-10-01T04:38:59.365Z,11.21
2022-10-01T04:41:30.669Z,11.22
2022-10-01T04:43:59.356Z,11.25
2022-10-01T04:46:26.244Z,11.27
2022-10-01T04:48:52.852Z,11.29
2022-10-01T04:51:19.396Z,11.31
2022-10-01T04:53:45.952Z,11.32
2022-10-01T04:56:12.594Z,11.33
2022-10-01T04:58:39.137Z,11.34
2022-10-01T05:01:05.832Z,11.34
2022-10-01T05:03:32.544Z,11.37
2022-10-01T05:05:59.210Z,11.37
2022-10-01T05:08:25.902Z,11.40
2022-10-01T05:10:53.120Z,11.42
2022-10-01T05:13:19.713Z,11.46
2022-10-01T05:15:48.814Z,11.50
2022-10-01T05:18:15.330Z,11.53
2022-10-01T05:20:41.820Z,11.58
2022-10-01T05:23:08.390Z,11.61
2022-10-01T05:25:35.039Z,11.64
2022-10-01T05:28:05.345Z,11.67
2022-10-01T05:30:33.488Z,11.69
2022-10-01T05:33:02.468Z,11.70
2022-10-01T05:35:29.903Z,11.70
2022-10-01T05:38:01.503Z,11.70
2022-10-01T05:40:29.295Z,11.69
2022-10-01T05:42:58.371Z,11.68
2022-10-01T05:45:27.412Z,11.67
2022-10-01T05:48:01.898Z,11.65
2022-10-01T05:50:31.436Z,11.65
2022-10-01T05:52:59.287Z,11.63
2022-10-01T05:55:26.558Z,11.62
2022-10-01T05:57:57.349Z,11.62
2022-10-01T06:00:24.393Z,11.61
2022-10-01T06:02:52.835Z,11.60
2022-10-01T06:05:20.626Z,11.59
2022-10-01T06:07:47.855Z,11.56
2022-10-01T06:10:14.693Z,11.52
2022-10-01T06:12:43.148Z,11.48
2022-10-01T06:15:11.104Z,11.46
2022-10-01T06:17:43.804Z,11.45
2022-10-01T06:20:19.142Z,11.42
2022-10-01T06:22:54.348Z,11.36
2022-10-01T06:25:21.478Z,11.34
2022-10-01T06:27:57.977Z,11.35
2022-10-01T06:30:28.875Z,11.32
2022-10-01T06:33:10.869Z,11.32
2022-10-01T06:35:44.528Z,11.31
2022-10-01T06:38:11.611Z,11.31
2022-10-01T06:40:39.112Z,11.29
2022-10-01T06:43:08.057Z,11.29
2022-10-01T06:45:41.082Z,11.30
2022-10-01T06:48:08.251Z,11.29
2022-10-01T06:50:35.227Z,11.29
2022-10-01T06:53:02.780Z,11.29
2022-10-01T06:55:32.194Z,11.28
2022-10-01T06:58:04.140Z,11.28
2022-10-01T07:00:32.962Z,11.27
2022-10-01T07:03:00.684Z,11.28
2022-10-01T07:05:27.958Z,11.29
2022-10-01T07:07:54.599Z,11.30
2022-10-01T07:10:22.133Z,11.32
2022-10-01T07:12:49.798Z,11.34
2022-10-01T07:15:18.767Z,11.35
2022-10-01T07:17:49.597Z,11.35
2022-10-01T07:20:20.613Z,11.36
2022-10-01T07:22:48.378Z,11.37
2022-10-01T07:25:15.439Z,11.38
2022-10-01T07:27:42.122Z,11.37
2022-10-01T07:30:09.145Z,11.40
2022-10-01T07:32:35.693Z,11.40
2022-10-01T07:35:02.482Z,11.41
2022-10-01T07:37:29.038Z,11.41
2022-10-01T07:39:55.709Z,11.40
2022-10-01T07:42:22.268Z,11.39
2022-10-01T07:44:49.549Z,11.43
2022-10-01T07:47:16.207Z,11.43
2022-10-01T07:49:42.754Z,11.41
2022-10-01T07:52:13.117Z,11.39
2022-10-01T07:54:40.336Z,11.41
2022-10-01T07:57:06.808Z,11.42
2022-10-01T07:59:33.501Z,11.42
2022-10-01T08:02:01.043Z,11.42
2022-10-01T08:04:46.390Z,11.42
2022-10-01T08:07:12.965Z,11.42
2022-10-01T08:09:39.835Z,11.40
2022-10-01T08:12:06.370Z,11.39
2022-10-01T08:14:33.054Z,11.40
2022-10-01T08:16:59.661Z,11.41
2022-10-01T08:19:26.401Z,11.39
2022-10-01T08:21:53.006Z,11.42
2022-10-01T08:24:20.146Z,11.45
2022-10-01T08:26:51.906Z,11.50
2022-10-01T08:29:18.394Z,11.58
2022-10-01T08:31:44.942Z,11.62
2022-10-01T08:34:11.585Z,11.62
2022-10-01T08:36:38.153Z,11.60
2022-10-01T08:39:04.776Z,11.58
2022-10-01T08:41:31.262Z,11.56
2022-10-01T08:43:59.841Z,11.58
2022-10-01T08:46:34.987Z,11.60
2022-10-01T08:49:05.837Z,11.64
2022-10-01T08:51:39.898Z,11.66
2022-10-01T08:54:42.416Z,11.69
2022-10-01T08:57:16.732Z,11.72
2022-10-01T08:59:47.155Z,11.75
2022-10-01T09:02:23.881Z,11.77
2022-10-01T09:05:04.168Z,11.79
2022-10-01T09:07:56.483Z,11.86
2022-10-01T09:10:24.895Z,11.90
2022-10-01T09:13:14.539Z,11.97
2022-10-01T09:16:06.601Z,12.04
2022-10-01T09:18:55.320Z,12.06
2022-10-01T09:21:48.725Z,12.13
2022-10-01T09:24:22.710Z,12.21
2022-10-01T09:26:49.330Z,12.29
2022-10-01T09:29:27.636Z,12.35
2022-10-01T09:31:56.042Z,12.37
2022-10-01T09:34:30.614Z,12.36
2022-10-01T09:37:14.575Z,12.36
2022-10-01T09:40:23.445Z,12.44
2022-10-01T09:42:51.234Z,12.57
2022-10-01T09:45:19.385Z,12.64
2022-10-01T09:47:50.822Z,12.67
2022-10-01T09:50:30.131Z,12.68
2022-10-01T09:52:58.401Z,12.75
2022-10-01T09:55:36.629Z,12.81
2022-10-01T09:58:09.551Z,12.89
2022-10-01T10:00:37.893Z,12.96
2022-10-01T10:03:04.673Z,12.98
2022-10-01T10:05:42.033Z,12.97
2022-10-01T10:08:22.363Z,12.96
2022-10-01T10:11:11.152Z,12.85
2022-10-01T10:13:41.956Z,12.85
2022-10-01T10:16:21.883Z,12.92
2022-10-01T10:18:52.232Z,13.01
2022-10-01T10:21:23.319Z,13.17
2022-10-01T10:23:59.113Z,13.34
2022-10-01T10:26:32.990Z,13.62
2022-10-01T10:29:04.680Z,13.83
2022-10-01T10:31:48.024Z,13.98
2022-10-01T10:34:16.588Z,14.00
2022-10-01T10:36:45.276Z,14.07
2022-10-01T10:39:30.644Z,14.19
2022-10-01T10:42:00.021Z,14.24
2022-10-01T10:44:35.101Z,14.36
2022-10-01T10:47:05.262Z,14.56
2022-10-01T10:49:45.397Z,14.66
2022-10-01T10:52:38.407Z,14.84
2022-10-01T10:55:26.926Z,15.00
2022-10-01T10:57:57.548Z,15.01
2022-10-01T11:00:26.291Z,15.12
2022-10-01T11:02:58.799Z,15.09
2022-10-01T11:05:29.972Z,15.17
2022-10-01T11:07:59.433Z,15.04
2022-10-01T11:10:36.803Z,15.15
2022-10-01T11:13:43.841Z,15.35
2022-10-01T11:16:32.432Z,15.50
2022-10-01T11:19:22.748Z,15.58
2022-10-01T11:22:05.764Z,15.69
2022-10-01T11:25:04.769Z,15.58
2022-10-01T11:27:36.279Z,15.55
2022-10-01T11:30:16.555Z,15.65
2022-10-01T11:32:50.412Z,15.64
2022-10-01T11:35:26.169Z,15.59
2022-10-01T11:38:06.762Z,15.57
2022-10-01T11:40:39.369Z,15.62
2022-10-01T11:43:14.172Z,15.91
2022-10-01T11:45:46.080Z,16.10
2022-10-01T11:48:25.881Z,16.12
2022-10-01T11:50:55.305Z,16.08
2022-10-01T11:53:30.852Z,16.11
2022-10-01T11:56:29.596Z,16.39
2022-10-01T11:59:12.155Z,16.36
2022-10-01T12:02:01.585Z,16.14
2022-10-01T12:04:37.853Z,16.17
2022-10-01T12:07:22.374Z,16.11
2022-10-01T12:09:54.875Z,16.17
2022-10-01T12:12:27.176Z,16.30
2022-10-01T12:15:17.359Z,16.45
2022-10-01T12:17:53.990Z,16.58
2022-10-01T12:20:35.896Z,16.74
2022-10-01T12:23:07.102Z,16.93
2022-10-01T12:26:05.863Z,16.93
2022-10-01T12:28:41.151Z,17.00
2022-10-01T12:31:27.410Z,17.14
2022-10-01T12:34:00.217Z,17.08
2022-10-01T12:36:53.221Z,16.96
2022-10-01T12:39:19.917Z,17.01
2022-10-01T12:42:04.586Z,16.91
2022-10-01T12:44:45.820Z,16.90
2022-10-01T12:47:50.929Z,17.11
2022-10-01T12:50:37.597Z,17.27
2022-10-01T12:53:25.870Z,17.39
2022-10-01T12:56:14.189Z,17.43
2022-10-01T12:58:57.448Z,17.10
2022-10-01T13:02:09.992Z,16.90
2022-10-01T13:04:56.934Z,16.87
2022-10-01T13:07:42.677Z,16.94
2022-10-01T13:10:24.680Z,16.92
2022-10-01T13:13:15.085Z,16.77
2022-10-01T13:15:47.639Z,16.67
2022-10-01T13:18:39.160Z,16.67
2022-10-01T13:21:14.808Z,16.81
2022-10-01T13:23:50.214Z,17.00
2022-10-01T13:26:32.730Z,17.22
2022-10-01T13:29:49.503Z,17.23
2022-10-01T13:32:31.241Z,17.33
2022-10-01T13:34:59.865Z,17.33
2022-10-01T13:37:29.474Z,17.50
2022-10-01T13:39:57.506Z,17.51
2022-10-01T13:42:27.619Z,17.46
2022-10-01T13:45:00.818Z,17.43
2022-10-01T13:47:28.499Z,17.32
2022-10-01T13:49:59.627Z,17.24
2022-10-01T13:52:26.647Z,17.20
2022-10-01T13:54:56.376Z,17.15
2022-10-01T13:57:28.480Z,17.08
2022-10-01T14:00:12.330Z,17.18
2022-10-01T14:02:45.247Z,17.22
2022-10-01T14:05:17.500Z,17.21
2022-10-01T14:07:48.671Z,17.19
2022-10-01T14:10:16.635Z,17.19
2022-10-01T14:13:05.190Z,17.42
2022-10-01T14:15:56.399Z,17.56
2022-10-01T14:18:26.625Z,17.37
2022-10-01T14:21:17.945Z,17.17
2022-10-01T14:24:09.852Z,17.12
2022-10-01T14:26:57.985Z,17.11
2022-10-01T14:29:36.489Z,17.05
2022-10-01T14:32:29.626Z,16.92
2022-10-01T14:35:03.675Z,16.87
2022-10-01T14:37:30.758Z,16.87
2022-10-01T14:40:02.513Z,16.84
2022-10-01T14:42:29.091Z,16.79
2022-10-01T14:44:55.650Z,16.73
2022-10-01T14:47:24.299Z,16.62
2022-10-01T14:49:51.898Z,16.52
2022-10-01T14:52:26.258Z,16.41
2022-10-01T14:54:52.778Z,16.33
2022-10-01T14:57:38.899Z,15.99
2022-10-01T15:00:12.248Z,15.25
2022-10-01T15:03:15.729Z,14.47
2022-10-01T15:05:44.292Z,14.02
2022-10-01T15:08:22.771Z,13.54
2022-10-01T15:11:03.779Z,13.21
2022-10-01T15:13:35.343Z,12.92
2022-10-01T15:16:02.928Z,12.65
2022-10-01T15:18:30.583Z,12.46
2022-10-01T15:21:06.351Z,12.34
2022-10-01T15:23:36.860Z,12.30
2022-10-01T15:26:08.710Z,12.22
2022-10-01T15:28:36.296Z,12.09
2022-10-01T15:31:05.836Z,12.01
2022-10-01T15:33:35.460Z,11.98
2022-10-01T15:36:05.128Z,11.97
2022-10-01T15:38:33.211Z,11.95
2022-10-01T15:41:26.858Z,11.96
2022-10-01T15:43:49.850Z,12.02
2022-10-01T15:46:29.165Z,12.12
2022-10-01T15:49:24.046Z,12.19
2022-10-01T15:52:22.273Z,12.23
2022-10-01T15:54:58.942Z,12.27
2022-10-01T15:57:27.230Z,12.31
2022-10-01T15:59:56.131Z,12.33
2022-10-01T16:02:29.700Z,12.33
2022-10-01T16:05:04.596Z,12.28
2022-10-01T16:07:34.847Z,12.28
2022-10-01T16:10:15.538Z,12.27
2022-10-01T16:12:42.462Z,12.30
2022-10-01T16:15:27.888Z,12.33
2022-10-01T16:17:59.451Z,12.36
2022-10-01T16:20:34.694Z,12.40
2022-10-01T16:23:33.398Z,12.58
2022-10-01T16:26:00.211Z,12.66
2022-10-01T16:28:35.119Z,12.47
2022-10-01T16:31:04.453Z,12.37
2022-10-01T16:33:31.392Z,12.27
2022-10-01T16:36:11.048Z,12.17
2022-10-01T16:38:37.777Z,12.09
2022-10-01T16:41:08.018Z,12.02
2022-10-01T16:43:34.588Z,11.96
2022-10-01T16:46:01.472Z,11.90
2022-10-01T16:48:28.233Z,11.84
2022-10-01T16:50:58.894Z,11.78
2022-10-01T16:53:26.733Z,11.74
2022-10-01T16:55:54.739Z,11.71
2022-10-01T16:58:21.770Z,11.68
2022-10-01T17:00:48.335Z,11.63
2022-10-01T17:03:20.913Z,11.60
2022-10-01T17:05:47.995Z,11.58
2022-10-01T17:08:15.257Z,11.56
2022-10-01T17:10:45.753Z,11.52
2022-10-01T17:13:13.595Z,11.49
2022-10-01T17:15:40.874Z,11.45
2022-10-01T17:18:09.626Z,11.45
2022-10-01T17:20:38.143Z,11.44
2022-10-01T17:23:05.626Z,11.43
2022-10-01T17:25:35.544Z,11.45
2022-10-01T17:28:05.891Z,11.52
2022-10-01T17:30:32.811Z,11.58
2022-10-01T17:33:00.708Z,11.64
2022-10-01T17:35:29.422Z,11.70
2022-10-01T17:37:56.123Z,11.75
2022-10-01T17:40:22.633Z,11.80
2022-10-01T17:42:49.299Z,11.85
2022-10-01T17:45:16.280Z,11.85
2022-10-01T17:47:48.009Z,11.86
2022-10-01T17:50:15.129Z,11.84
2022-10-01T17:52:41.987Z,11.83
2022-10-01T17:55:09.310Z,11.78
2022-10-01T17:57:35.822Z,11.75
2022-10-01T18:00:03.573Z,11.77
2022-10-01T18:02:43.161Z,11.78
2022-10-01T18:05:12.423Z,11.79
2022-10-01T18:07:39.784Z,11.78
2022-10-01T18:10:08.330Z,11.75
2022-10-01T18:12:34.905Z,11.74
2022-10-01T18:15:02.110Z,11.74
2022-10-01T18:17:29.188Z,11.73
2022-10-01T18:19:57.048Z,11.67
2022-10-01T18:22:24.200Z,11.61
2022-10-01T18:24:50.786Z,11.60
2022-10-01T18:27:17.412Z,11.56
2022-10-01T18:29:43.912Z,11.54
2022-10-01T18:32:24.536Z,11.52
2022-10-01T18:34:59.441Z,11.50
2022-10-01T18:37:39.018Z,11.48
2022-10-01T18:40:41.666Z,11.46
2022-10-01T18:43:17.943Z,11.43
2022-10-01T18:46:15.364Z,11.41
2022-10-01T18:48:53.991Z,11.38
2022-10-01T18:51:52.079Z,11.36
2022-10-01T18:54:37.561Z,11.32
2022-10-01T18:57:21.494Z,11.31
2022-10-01T18:59:59.940Z,11.30
2022-10-01T19:02:50.448Z,11.28
2022-10-01T19:05:43.396Z,11.26
2022-10-01T19:08:29.038Z,11.28
2022-10-01T19:11:18.267Z,11.29
2022-10-01T19:14:11.645Z,11.32
2022-10-01T19:16:54.697Z,11.37
2022-10-01T19:19:43.599Z,11.41
2022-10-01T19:22:23.555Z,11.45
2022-10-01T19:25:22.293Z,11.46
2022-10-01T19:28:33.648Z,11.47
2022-10-01T19:31:12.839Z,11.44
2022-10-01T19:33:46.939Z,11.39
2022-10-01T19:36:26.807Z,11.38
2022-10-01T19:38:57.982Z,11.38
2022-10-01T19:41:38.911Z,11.36
2022-10-01T19:44:21.290Z,11.34
2022-10-01T19:46:49.852Z,11.32
2022-10-01T19:49:25.450Z,11.31
2022-10-01T19:51:57.581Z,11.29
2022-10-01T19:54:32.539Z,11.28
2022-10-01T19:57:23.370Z,11.26
2022-10-01T19:59:54.180Z,11.25
2022-10-01T20:02:48.256Z,11.25
2022-10-01T20:05:20.651Z,11.22
2022-10-01T20:08:00.500Z,11.18
2022-10-01T20:10:35.964Z,11.15
2022-10-01T20:13:22.545Z,11.09
2022-10-01T20:16:14.174Z,11.05
2022-10-01T20:19:08.793Z,11.02
2022-10-01T20:21:45.507Z,10.97
2022-10-01T20:24:35.559Z,10.92
2022-10-01T20:27:07.927Z,10.87
2022-10-01T20:29:48.937Z,10.84
2022-10-01T20:32:22.309Z,10.80
2022-10-01T20:34:52.185Z,10.78
2022-10-01T20:37:35.047Z,10.78
2022-10-01T20:40:14.765Z,10.76
2022-10-01T20:42:47.595Z,10.76
2022-10-01T20:45:26.461Z,10.76
2022-10-01T20:48:14.955Z,10.73
2022-10-01T20:50:47.455Z,10.73
2022-10-01T20:53:24.826Z,10.74
2022-10-01T20:55:57.478Z,10.72
2022-10-01T20:58:29.083Z,10.70
2022-10-01T21:01:07.772Z,10.69
2022-10-01T21:03:38.955Z,10.70
2022-10-01T21:06:46.426Z,10.69
2022-10-01T21:09:50.177Z,10.67
2022-10-01T21:12:22.768Z,10.67
2022-10-01T21:14:53.615Z,10.67
2022-10-01T21:17:27.854Z,10.70
2022-10-01T21:20:21.031Z,10.70
2022-10-01T21:23:06.376Z,10.67
2022-10-01T21:25:35.620Z,10.70
2022-10-01T21:28:25.309Z,10.71
2022-10-01T21:31:01.133Z,10.71
2022-10-01T21:33:32.995Z,10.72
2022-10-01T21:36:39.166Z,10.72
2022-10-01T21:39:10.586Z,10.72
2022-10-01T21:41:56.092Z,10.73
2022-10-01T21:44:57.001Z,10.74
2022-10-01T21:47:34.288Z,10.72
2022-10-01T21:50:34.541Z,10.71
2022-10-01T21:53:19.902Z,10.72
2022-10-01T21:56:24.636Z,10.71
2022-10-01T21:59:07.016Z,10.72
2022-10-01T22:02:05.089Z,10.69
2022-10-01T22:04:50.215Z,10.69
2022-10-01T22:07:27.992Z,10.69
2022-10-01T22:10:10.128Z,10.68
2022-10-01T22:12:40.406Z,10.68
2022-10-01T22:15:20.065Z,10.69
2022-10-01T22:17:49.984Z,10.69
2022-10-01T22:20:19.967Z,10.71
2022-10-01T22:22:50.740Z,10.71
2022-10-01T22:25:18.194Z,10.68
2022-10-01T22:28:01.893Z,10.64
2022-10-01T22:30:33.737Z,10.62
2022-10-01T22:33:08.087Z,10.62
2022-10-01T22:36:02.236Z,10.62
2022-10-01T22:38:40.752Z,10.62
2022-10-01T22:41:21.667Z,10.63
2022-10-01T22:43:48.300Z,10.65
2022-10-01T22:46:36.375Z,10.63
2022-10-01T22:49:38.335Z,10.64
2022-10-01T22:52:07.896Z,10.67
2022-10-01T22:55:04.589Z,10.69
2022-10-01T22:57:57.136Z,10.72
2022-10-01T23:00:24.208Z,10.72
2022-10-01T23:03:17.245Z,10.72
2022-10-01T23:06:01.682Z,10.72
2022-10-01T23:08:43.089Z,10.77
2022-10-01T23:11:26.943Z,10.78
2022-10-01T23:14:06.466Z,10.80
2022-10-01T23:16:55.509Z,10.78
2022-10-01T23:19:30.952Z,10.76
2022-10-01T23:22:19.377Z,10.73
2022-10-01T23:25:07.147Z,10.72
2022-10-01T23:27:52.702Z,10.69
2022-10-01T23:30:20.781Z,10.67
2022-10-01T23:33:18.063Z,10.66
2022-10-01T23:35:52.608Z,10.65
2022-10-01T23:38:30.911Z,10.62
2022-10-01T23:41:35.296Z,10.60
2022-10-01T23:44:29.442Z,10.57
2022-10-01T23:46:58.933Z,10.54
2022-10-01T23:49:30.937Z,10.50
2022-10-01T23:52:15.389Z,10.50
2022-10-01T23:54:51.431Z,10.51
2022-10-01T23:57:25.748Z,10.54
